Time;durP1;ratioP1;P1;durP2;ratioP2;P2;SDS_P1;SDS_P2;PMS_P1;PMS_P2;Temp;Humidity;BMP_temperature;BMP_pressure;BME280_temperature;BME280_humidity;BME280_pressure;Samples;Min_cycle;Max_cycle;Signal;HPM_P1;HPM_P2
2022/07/31 00:00:30;;;;;;;0.00;0.00;;;;;;;16.49;100.00;97356.59;6125523;23;20029;-58
2022/07/31 00:02:58;;;;;;;0.00;0.00;;;;;;;16.48;100.00;97357.59;6125503;23;20110;-57
2022/07/31 00:05:26;;;;;;;0.00;0.00;;;;;;;16.43;100.00;97357.19;6124977;23;20017;-58
2022/07/31 00:07:54;;;;;;;0.00;0.00;;;;;;;16.42;100.00;97360.84;6125649;23;20014;-57
2022/07/31 00:10:22;;;;;;;0.00;0.00;;;;;;;16.35;100.00;97352.63;6125674;23;20515;-58
2022/07/31 00:12:50;;;;;;;0.00;0.00;;;;;;;16.32;100.00;97357.41;6125755;23;20495;-58
2022/07/31 00:15:18;;;;;;;0.00;0.00;;;;;;;16.31;100.00;97355.75;6125183;23;20021;-58
2022/07/31 00:17:46;;;;;;;0.00;0.00;;;;;;;16.29;100.00;97355.88;6125464;23;20348;-58
2022/07/31 00:20:16;;;;;;;0.00;0.00;;;;;;;16.34;100.00;97352.78;6125389;23;20018;-57
2022/07/31 00:22:46;;;;;;;0.00;0.00;;;;;;;16.31;100.00;97353.94;6125367;23;20018;-58
2022/07/31 00:25:15;;;;;;;0.00;0.00;;;;;;;16.31;100.00;97353.09;6125299;23;20022;-60
2022/07/31 00:27:42;;;;;;;0.00;0.00;;;;;;;16.32;100.00;97349.44;6125207;23;20514;-57
2022/07/31 00:30:12;;;;;;;0.00;0.00;;;;;;;16.31;100.00;97350.44;6099722;23;20339;-57
2022/07/31 00:32:40;;;;;;;0.00;0.00;;;;;;;16.26;100.00;97350.88;6099537;23;20388;-56
2022/07/31 00:35:09;;;;;;;0.00;0.00;;;;;;;16.24;100.00;97349.34;6124917;23;20388;-57
2022/07/31 00:37:37;;;;;;;0.00;0.00;;;;;;;16.26;100.00;97352.72;6124723;23;20065;-56
2022/07/31 00:40:05;;;;;;;0.00;0.00;;;;;;;16.19;100.00;97347.13;6099313;23;20021;-57
2022/07/31 00:42:33;;;;;;;0.00;0.00;;;;;;;16.25;100.00;97353.66;6125171;23;20436;-57
2022/07/31 00:45:01;;;;;;;0.00;0.00;;;;;;;16.28;100.00;97356.03;6125401;23;20021;-57
2022/07/31 00:47:30;;;;;;;0.00;0.00;;;;;;;16.24;100.00;97354.66;6099719;23;20029;-56
2022/07/31 00:49:57;;;;;;;0.00;0.00;;;;;;;16.25;100.00;97345.72;6125421;23;20392;-56
2022/07/31 00:52:25;;;;;;;0.00;0.00;;;;;;;16.21;100.00;97352.31;6099183;23;20018;-55
2022/07/31 00:54:52;;;;;;;0.00;0.00;;;;;;;16.13;100.00;97350.41;6125196;23;20018;-56
2022/07/31 00:57:20;;;;;;;0.00;0.00;;;;;;;16.08;100.00;97354.50;6099014;23;20024;-56
2022/07/31 00:59:47;;;;;;;0.00;0.00;;;;;;;16.03;100.00;97352.25;6099406;23;20018;-54
2022/07/31 01:02:14;;;;;;;0.00;0.00;;;;;;;16.03;100.00;97352.25;6099219;23;20463;-56
2022/07/31 01:04:44;;;;;;;0.00;0.00;;;;;;;16.05;100.00;97358.25;6124453;23;20902;-55
2022/07/31 01:07:12;;;;;;;0.00;0.00;;;;;;;16.04;100.00;97350.44;6124965;23;20037;-55
2022/07/31 01:14:02;;;;;;;0.00;0.00;;;;;;;15.84;100.00;97360.31;6125081;23;20028;-58
2022/07/31 01:21:00;;;;;;;0.00;0.00;;;;;;;15.76;100.00;97354.06;6125013;23;20017;-58
2022/07/31 01:28:04;;;;;;;0.00;0.00;;;;;;;15.67;100.00;97358.44;6124945;23;20470;-56
2022/07/31 01:35:01;;;;;;;0.00;0.00;;;;;;;15.47;100.00;97359.50;6124293;23;20058;-59
2022/07/31 01:37:33;;;;;;;0.00;0.00;;;;;;;15.44;100.00;97362.44;6124717;23;20024;-58
2022/07/31 01:40:05;;;;;;;0.00;0.00;;;;;;;15.36;100.00;97357.03;6099014;23;20101;-58
2022/07/31 01:42:36;;;;;;;0.00;0.00;;;;;;;15.35;100.00;97357.97;6098932;23;20018;-59
2022/07/31 01:45:07;;;;;;;0.00;0.00;;;;;;;15.37;100.00;97357.84;6098861;23;20387;-59
2022/07/31 01:47:35;;;;;;;0.00;0.00;;;;;;;15.32;100.00;97362.75;6099185;23;20444;-59
2022/07/31 01:50:06;;;;;;;0.00;0.00;;;;;;;15.27;100.00;97359.69;6098850;23;20022;-59
2022/07/31 01:52:35;;;;;;;0.00;0.00;;;;;;;15.23;100.00;97355.66;6099198;23;20052;-59
2022/07/31 01:55:04;;;;;;;0.00;0.00;;;;;;;15.19;100.00;97357.75;6098890;23;20049;-58
2022/07/31 01:57:34;;;;;;;0.00;0.00;;;;;;;15.21;100.00;97360.25;6098639;23;20022;-57
2022/07/31 02:00:07;;;;;;;0.00;0.00;;;;;;;15.21;100.00;97350.50;6099064;23;20014;-59
2022/07/31 02:02:44;;;;;;;0.00;0.00;;;;;;;15.11;100.00;97364.69;6098913;23;20029;-60
2022/07/31 02:05:13;;;;;;;0.00;0.00;;;;;;;15.03;100.00;97356.63;6098406;23;20026;-59
2022/07/31 02:07:42;;;;;;;0.00;0.00;;;;;;;15.00;100.00;97357.75;6098821;23;20040;-59
2022/07/31 02:10:14;;;;;;;0.00;0.00;;;;;;;15.04;100.00;97348.53;6093733;23;20018;-59
2022/07/31 02:12:44;;;;;;;0.00;0.00;;;;;;;14.96;100.00;97355.53;6093852;23;20073;-59
2022/07/31 02:15:14;;;;;;;0.00;0.00;;;;;;;14.92;100.00;97354.13;6093907;23;20097;-60
2022/07/31 02:17:46;;;;;;;0.00;0.00;;;;;;;14.84;100.00;97351.38;6093928;23;20089;-61
2022/07/31 02:20:24;;;;;;;0.00;0.00;;;;;;;14.83;100.00;97352.34;6095306;23;20015;-59
2022/07/31 02:22:55;;;;;;;0.00;0.00;;;;;;;14.73;100.00;97351.50;6094015;23;20045;-59
2022/07/31 02:25:23;;;;;;;0.00;0.00;;;;;;;14.70;100.00;97350.00;6093840;23;20018;-59
2022/07/31 02:27:51;;;;;;;0.00;0.00;;;;;;;14.69;100.00;97358.06;6093823;23;20019;-59
2022/07/31 02:30:19;;;;;;;0.00;0.00;;;;;;;14.67;100.00;97352.91;6093909;23;20026;-59
2022/07/31 02:32:50;;;;;;;0.00;0.00;;;;;;;14.66;100.00;97353.03;6094393;23;20393;-60
2022/07/31 02:35:19;;;;;;;0.00;0.00;;;;;;;14.57;100.00;97348.59;6093245;23;20026;-59
2022/07/31 02:37:51;;;;;;;0.00;0.00;;;;;;;14.61;100.00;97339.41;6093826;23;20451;-60
2022/07/31 02:40:21;;;;;;;0.00;0.00;;;;;;;14.53;100.00;97340.09;6093968;23;20022;-59
2022/07/31 02:42:49;;;;;;;0.00;0.00;;;;;;;14.51;100.00;97356.09;6093817;23;20106;-59
2022/07/31 02:45:16;;;;;;;0.00;0.00;;;;;;;14.50;100.00;97351.78;6095347;23;20025;-59
2022/07/31 02:47:44;;;;;;;0.00;0.00;;;;;;;14.48;100.00;97350.28;6093622;23;20026;-59
2022/07/31 02:50:15;;;;;;;0.00;0.00;;;;;;;14.46;100.00;97345.09;6093868;23;20433;-59
2022/07/31 02:52:43;;;;;;;0.00;0.00;;;;;;;14.44;100.00;97349.69;6093764;23;20042;-60
2022/07/31 02:55:13;;;;;;;0.00;0.00;;;;;;;14.40;100.00;97350.13;6095136;23;20041;-60
2022/07/31 02:57:40;;;;;;;0.00;0.00;;;;;;;14.39;100.00;97349.28;6093848;23;20516;-59
2022/07/31 03:00:21;;;;;;;0.00;0.00;;;;;;;14.39;100.00;97349.28;6094023;23;20027;-59
2022/07/31 03:02:50;;;;;;;0.00;0.00;;;;;;;14.32;100.00;97350.81;6095494;23;20353;-60
2022/07/31 03:05:18;;;;;;;0.00;0.00;;;;;;;14.35;100.00;97354.97;6094951;23;20018;-59
2022/07/31 03:07:46;;;;;;;0.00;0.00;;;;;;;14.34;100.00;97356.81;6095327;23;20018;-60
2022/07/31 03:10:16;;;;;;;0.00;0.00;;;;;;;14.26;100.00;97351.38;6114004;23;20022;-59
2022/07/31 03:13:05;;;;;;;0.00;0.00;;;;;;;14.25;100.00;97354.16;6100456;23;20045;-59
2022/07/31 03:15:33;;;;;;;0.00;0.00;;;;;;;14.28;100.00;97352.06;6126034;23;20073;-59
2022/07/31 03:18:01;;;;;;;0.00;0.00;;;;;;;14.26;100.00;97350.53;6100129;23;20017;-59
2022/07/31 03:20:35;;;;;;;0.00;0.00;;;;;;;14.26;100.00;97356.66;6100100;23;20022;-58
2022/07/31 03:23:03;;;;;;;0.00;0.00;;;;;;;14.21;100.00;97353.56;6100267;23;20018;-57
2022/07/31 03:25:35;;;;;;;0.00;0.00;;;;;;;14.22;100.00;97354.44;6100209;23;20428;-57
2022/07/31 03:28:02;;;;;;;0.00;0.00;;;;;;;14.28;100.00;97351.22;6125882;23;20531;-58
2022/07/31 03:30:30;;;;;;;0.00;0.00;;;;;;;14.28;100.00;97346.75;6100112;23;20025;-58
2022/07/31 03:33:01;;;;;;;0.00;0.00;;;;;;;14.25;100.00;97354.97;6100177;23;20340;-60
2022/07/31 03:35:30;;;;;;;0.00;0.00;;;;;;;14.22;100.00;97347.31;6100072;23;20022;-60
2022/07/31 03:37:58;;;;;;;0.00;0.00;;;;;;;14.19;100.00;97350.25;6125751;23;20332;-60
2022/07/31 03:40:26;;;;;;;0.00;0.00;;;;;;;14.17;100.00;97352.19;6100026;23;20018;-60
2022/07/31 03:42:56;;;;;;;0.00;0.00;;;;;;;14.19;100.00;97355.53;6099901;23;20072;-60
2022/07/31 03:45:26;;;;;;;0.00;0.00;;;;;;;14.17;100.00;97346.88;6099920;23;20031;-59
2022/07/31 03:47:54;;;;;;;0.00;0.00;;;;;;;14.16;100.00;97355.81;6099848;23;20052;-60
2022/07/31 03:50:21;;;;;;;0.00;0.00;;;;;;;14.15;100.00;97348.00;6099807;23;20018;-60
2022/07/31 03:52:50;;;;;;;0.00;0.00;;;;;;;14.13;100.00;97357.88;6099753;23;20028;-58
2022/07/31 03:55:18;;;;;;;0.00;0.00;;;;;;;14.13;100.00;97352.59;6099798;23;20089;-58
2022/07/31 03:57:47;;;;;;;0.00;0.00;;;;;;;14.11;100.00;97355.34;6099709;23;20069;-58
2022/07/31 04:00:19;;;;;;;0.00;0.00;;;;;;;14.11;100.00;97363.28;6099531;23;20036;-58
2022/07/31 04:02:47;;;;;;;0.00;0.00;;;;;;;14.15;100.00;97351.50;6100124;23;20416;-58
2022/07/31 04:05:35;;;;;;;0.00;0.00;;;;;;;14.13;100.00;97356.06;6125235;23;20645;-58
2022/07/31 04:08:03;;;;;;;0.00;0.00;;;;;;;14.15;100.00;97350.66;6125533;23;20073;-58
2022/07/31 04:10:30;;;;;;;0.00;0.00;;;;;;;14.12;100.00;97349.13;6094499;23;20449;-58
2022/07/31 04:12:58;;;;;;;0.00;0.00;;;;;;;14.16;100.00;97350.53;6094786;23;20018;-58
2022/07/31 04:15:28;;;;;;;0.00;0.00;;;;;;;14.14;100.00;97346.34;6094656;23;20026;-58
2022/07/31 04:17:56;;;;;;;0.00;0.00;;;;;;;14.14;100.00;97349.81;6094691;23;20019;-60
2022/07/31 04:20:30;;;;;;;0.00;0.00;;;;;;;14.13;100.00;97345.50;6094812;23;20397;-60
2022/07/31 04:22:58;;;;;;;0.00;0.00;;;;;;;14.18;100.00;97343.25;6095977;23;20019;-60
2022/07/31 04:25:47;;;;;;;0.00;0.00;;;;;;;14.22;100.00;97342.00;6095973;23;20022;-60
2022/07/31 04:28:33;;;;;;;0.00;0.00;;;;;;;14.36;100.00;97352.19;6096028;23;20041;-60
2022/07/31 04:31:02;;;;;;;0.00;0.00;;;;;;;14.33;100.00;97352.47;6094581;23;20429;-60
2022/07/31 04:33:33;;;;;;;0.00;0.00;;;;;;;14.28;100.00;97341.47;6094785;23;20077;-61
2022/07/31 04:36:01;;;;;;;0.00;0.00;;;;;;;14.20;100.00;97354.56;6094218;23;20130;-60
2022/07/31 04:38:28;;;;;;;0.00;0.00;;;;;;;14.17;100.00;97356.63;6094783;23;20022;-61
2022/07/31 04:40:57;;;;;;;0.00;0.00;;;;;;;14.11;100.00;97355.34;6094667;23;20452;-61
2022/07/31 04:43:24;;;;;;;0.00;0.00;;;;;;;14.07;100.00;97361.88;6094459;23;20045;-60
2022/07/31 04:45:51;;;;;;;0.00;0.00;;;;;;;14.12;100.00;97358.84;6094280;23;20467;-60
2022/07/31 04:48:20;;;;;;;0.00;0.00;;;;;;;14.15;100.00;97358.59;6094555;23;20021;-62
2022/07/31 04:50:48;;;;;;;0.00;0.00;;;;;;;14.19;100.00;97368.78;6094406;23;20022;-61
2022/07/31 04:53:16;;;;;;;0.00;0.00;;;;;;;14.14;100.00;97365.66;6094584;23;20349;-59
2022/07/31 04:56:32;;;;;;;0.00;0.00;;;;;;;14.12;100.00;97375.56;6094417;23;20018;-60
2022/07/31 04:58:33;;;;;;;0.00;0.00;;;;;;;14.11;100.00;97367.75;6094221;23;20019;-61
2022/07/31 05:01:01;;;;;;;0.00;0.00;;;;;;;14.06;100.00;97381.38;6094282;23;20037;-61
2022/07/31 05:03:32;;;;;;;0.00;0.00;;;;;;;14.00;100.00;97379.25;6094328;23;20027;-59
2022/07/31 05:06:09;;;;;;;0.00;0.00;;;;;;;13.99;100.00;97380.22;6095191;23;20022;-60
2022/07/31 05:08:37;;;;;;;0.00;0.00;;;;;;;14.06;100.00;97380.50;6094262;23;20024;-60
2022/07/31 05:11:25;;;;;;;0.00;0.00;;;;;;;14.04;100.00;97390.41;6094108;23;20070;-60
2022/07/31 05:13:54;;;;;;;0.00;0.00;;;;;;;14.03;100.00;97397.50;6094367;23;20018;-59
2022/07/31 05:16:23;;;;;;;0.00;0.00;;;;;;;14.04;100.00;97401.84;6094197;23;20022;-61
2022/07/31 05:18:52;;;;;;;0.00;0.00;;;;;;;14.11;100.00;97397.69;6094234;23;20022;-60
2022/07/31 05:21:38;;;;;;;0.00;0.00;;;;;;;14.08;100.00;97405.88;6095733;23;20018;-60
2022/07/31 05:24:25;;;;;;;0.00;0.00;;;;;;;14.07;100.00;97398.09;6095521;23;20022;-60
2022/07/31 05:27:03;;;;;;;0.00;0.00;;;;;;;14.08;100.00;97400.59;6094141;23;20101;-60
2022/07/31 05:29:31;;;;;;;0.00;0.00;;;;;;;14.15;100.00;97406.19;6094146;23;20077;-60
2022/07/31 05:31:58;;;;;;;0.00;0.00;;;;;;;14.15;100.00;97399.13;6094025;23;20022;-60
2022/07/31 05:34:29;;;;;;;0.00;0.00;;;;;;;14.19;100.00;97403.16;6094318;23;20340;-60
2022/07/31 05:36:57;;;;;;;0.00;0.00;;;;;;;14.19;100.00;97408.44;6093587;23;20097;-59
2022/07/31 05:39:25;;;;;;;0.00;0.00;;;;;;;14.16;100.00;97408.72;6094033;23;20018;-61
2022/07/31 05:42:11;;;;;;;0.00;0.00;;;;;;;14.28;100.00;97404.97;6095692;23;20492;-60
2022/07/31 05:44:57;;;;;;;0.00;0.00;;;;;;;14.24;100.00;97400.94;6095503;23;20018;-60
2022/07/31 05:47:24;;;;;;;0.00;0.00;;;;;;;14.28;100.00;97410.28;6071076;23;20086;-60
2022/07/31 05:49:53;;;;;;;0.00;0.00;;;;;;;14.38;100.00;97405.84;6094304;23;20065;-61
2022/07/31 05:52:21;;;;;;;0.00;0.00;;;;;;;14.37;100.00;97406.81;6094065;23;20026;-60
2022/07/31 05:55:00;;;;;;;0.00;0.00;;;;;;;14.37;100.00;97404.19;6093346;23;20026;-60
2022/07/31 05:57:50;;;;;;;0.00;0.00;;;;;;;14.26;100.00;97414.03;6083680;23;20093;-59
2022/07/31 06:00:19;;;;;;;0.00;0.00;;;;;;;14.17;100.00;97415.66;6094321;23;20093;-62
2022/07/31 06:02:47;;;;;;;0.00;0.00;;;;;;;14.12;100.00;97409.13;6094091;23;20113;-61
2022/07/31 06:05:52;;;;;;;0.00;0.00;;;;;;;14.15;100.00;97419.44;6066523;23;20097;-59
2022/07/31 06:08:19;;;;;;;0.00;0.00;;;;;;;14.16;100.00;97413.16;6093756;23;20014;-59
2022/07/31 06:10:49;;;;;;;0.00;0.00;;;;;;;14.07;100.00;97417.41;6093610;23;20026;-60
2022/07/31 06:13:17;;;;;;;0.00;0.00;;;;;;;14.06;100.00;97421.03;6095310;23;20018;-60
2022/07/31 06:15:45;;;;;;;0.00;0.00;;;;;;;14.04;100.00;97425.66;6093661;23;20389;-59
2022/07/31 06:18:14;;;;;;;0.00;0.00;;;;;;;14.02;100.00;97424.94;6094277;23;20717;-60
2022/07/31 06:20:42;;;;;;;0.00;0.00;;;;;;;14.09;100.00;97431.34;6093893;23;20022;-60
2022/07/31 06:23:11;;;;;;;0.00;0.00;;;;;;;14.08;100.00;97426.19;6094136;23;20082;-60
2022/07/31 06:25:40;;;;;;;0.00;0.00;;;;;;;14.01;100.00;97436.47;6094137;23;20318;-59
2022/07/31 06:28:09;;;;;;;0.00;0.00;;;;;;;13.94;100.00;97429.19;6094055;23;20314;-59
2022/07/31 06:30:37;;;;;;;0.00;0.00;;;;;;;13.84;100.00;97431.81;6093879;23;20019;-60
2022/07/31 06:33:04;;;;;;;0.00;0.00;;;;;;;13.88;100.00;97435.88;6093838;23;20101;-59
2022/07/31 06:35:32;;;;;;;0.00;0.00;;;;;;;13.91;100.00;97437.41;6093471;23;20055;-59
2022/07/31 06:38:33;;;;;;;0.00;0.00;;;;;;;13.89;100.00;97442.81;6063900;23;20033;-60
2022/07/31 06:44:20;;;;;;;0.00;0.00;;;;;;;14.00;100.00;97444.56;6097003;23;20025;-60
2022/07/31 06:47:06;;;;;;;0.00;0.00;;;;;;;13.95;100.00;97449.38;6097102;23;20019;-59
2022/07/31 06:49:56;;;;;;;0.00;0.00;;;;;;;14.04;100.00;97445.94;6089044;23;20073;-60
2022/07/31 06:52:28;;;;;;;0.00;0.00;;;;;;;13.96;100.00;97443.97;6095631;23;20049;-59
2022/07/31 06:54:58;;;;;;;0.00;0.00;;;;;;;13.99;100.00;97442.88;6071608;23;20390;-59
2022/07/31 06:57:26;;;;;;;0.00;0.00;;;;;;;13.99;100.00;97441.06;6095525;23;20018;-60
2022/07/31 06:59:54;;;;;;;0.00;0.00;;;;;;;14.01;100.00;97447.06;6095724;23;20046;-60
2022/07/31 07:02:22;;;;;;;0.00;0.00;;;;;;;13.99;100.00;97443.69;6095567;23;20459;-59
2022/07/31 07:04:49;;;;;;;0.00;0.00;;;;;;;14.01;100.00;97446.22;6094738;23;20026;-60
2022/07/31 07:07:17;;;;;;;0.00;0.00;;;;;;;13.97;100.00;97440.38;6095367;23;20022;-59
2022/07/31 07:09:44;;;;;;;0.00;0.00;;;;;;;14.03;100.00;97442.47;6095181;23;20070;-59
2022/07/31 07:12:18;;;;;;;0.00;0.00;;;;;;;14.09;100.00;97452.50;6095299;23;20482;-60
2022/07/31 07:14:47;;;;;;;0.00;0.00;;;;;;;14.11;100.00;97445.31;6095436;23;20772;-59
2022/07/31 07:17:16;;;;;;;0.00;0.00;;;;;;;14.13;100.00;97453.09;6095443;23;20392;-59
2022/07/31 07:19:44;;;;;;;0.00;0.00;;;;;;;13.99;100.00;97449.00;6095307;23;20437;-59
2022/07/31 07:22:11;;;;;;;0.00;0.00;;;;;;;14.00;100.00;97450.66;6095226;23;20461;-59
2022/07/31 07:24:39;;;;;;;0.00;0.00;;;;;;;14.02;100.00;97456.66;6096625;23;20507;-58
2022/07/31 07:27:10;;;;;;;0.00;0.00;;;;;;;14.02;100.00;97458.47;6095520;23;20022;-59
2022/07/31 07:29:39;;;;;;;0.00;0.00;;;;;;;13.96;100.00;97457.19;6095450;23;20470;-59
2022/07/31 07:32:06;;;;;;;0.00;0.00;;;;;;;14.00;100.00;97466.53;6095295;23;20101;-59
2022/07/31 07:34:37;;;;;;;0.00;0.00;;;;;;;13.98;100.00;97462.34;6094790;23;20345;-60
2022/07/31 07:37:04;;;;;;;0.00;0.00;;;;;;;13.95;100.00;97468.75;6095080;23;20334;-59
2022/07/31 07:39:34;;;;;;;0.00;0.00;;;;;;;13.91;100.00;97479.72;6095044;23;20019;-59
2022/07/31 07:42:02;;;;;;;0.00;0.00;;;;;;;13.89;100.00;97479.03;6095095;23;20050;-60
2022/07/31 07:44:29;;;;;;;0.00;0.00;;;;;;;13.92;100.00;97466.34;6094996;23;20026;-60
2022/07/31 07:46:58;;;;;;;0.00;0.00;;;;;;;13.95;100.00;97471.38;6096239;23;20445;-60
2022/07/31 07:49:28;;;;;;;0.00;0.00;;;;;;;14.03;100.00;97479.50;6094938;23;20508;-60
2022/07/31 07:52:34;;;;;;;0.00;0.00;;;;;;;13.98;100.00;97479.06;6008196;23;20095;-59
2022/07/31 07:55:06;;;;;;;0.00;0.00;;;;;;;14.02;100.00;97477.81;6008125;23;20027;-59
2022/07/31 07:57:59;;;;;;;0.00;0.00;;;;;;;14.03;100.00;97476.84;6008240;23;20426;-58
2022/07/31 08:01:00;;;;;;;0.00;0.00;;;;;;;14.08;100.00;97482.59;5951904;24;20029;-59
2022/07/31 08:03:29;;;;;;;0.00;0.00;;;;;;;14.07;100.00;97467.66;5928953;24;20570;-59
2022/07/31 08:05:56;;;;;;;0.00;0.00;;;;;;;14.15;100.00;97480.28;5928486;24;20051;-59
2022/07/31 08:08:24;;;;;;;0.00;0.00;;;;;;;14.26;100.00;97478.38;5928858;24;20031;-60
2022/07/31 08:11:14;;;;;;;0.00;0.00;;;;;;;14.26;100.00;97483.66;5951690;24;20511;-59
2022/07/31 08:13:53;;;;;;;0.00;0.00;;;;;;;14.18;100.00;97474.72;5928953;24;20028;-59
2022/07/31 08:16:41;;;;;;;0.00;0.00;;;;;;;14.24;100.00;97475.00;5951291;24;20036;-59
2022/07/31 08:19:10;;;;;;;0.00;0.00;;;;;;;14.24;100.00;97482.09;5951689;24;20440;-59
2022/07/31 08:21:38;;;;;;;0.00;0.00;;;;;;;14.25;100.00;97483.81;5928800;24;20035;-59
2022/07/31 08:24:06;;;;;;;0.00;0.00;;;;;;;14.29;100.00;97480.72;5951701;24;20047;-59
2022/07/31 08:29:16;;;;;;;0.00;0.00;;;;;;;14.15;100.00;97489.06;6040837;23;20083;-59
2022/07/31 08:31:47;;;;;;;0.00;0.00;;;;;;;14.10;100.00;97482.47;6040779;23;20022;-59
2022/07/31 08:34:35;;;;;;;0.00;0.00;;;;;;;14.07;100.00;97485.38;6064063;23;20033;-58
2022/07/31 08:37:06;;;;;;;0.00;0.00;;;;;;;14.17;100.00;97484.47;6079451;23;20022;-59
2022/07/31 08:39:33;;;;;;;0.00;0.00;;;;;;;14.13;100.00;97491.00;6099202;23;20073;-59
2022/07/31 08:46:26;;;;;;;0.00;0.00;;;;;;;14.25;100.00;97487.25;6125249;23;20020;-59
2022/07/31 08:48:57;;;;;;;0.00;0.00;;;;;;;14.33;100.00;97503.31;6099193;23;20049;-59
2022/07/31 08:51:27;;;;;;;0.00;0.00;;;;;;;14.26;100.00;97494.25;6099192;23;20021;-58
2022/07/31 08:54:13;;;;;;;0.00;0.00;;;;;;;14.29;100.00;97501.09;6125051;23;20022;-59
2022/07/31 08:56:45;;;;;;;0.00;0.00;;;;;;;14.29;100.00;97503.72;6099215;23;20022;-60
2022/07/31 08:59:16;;;;;;;0.00;0.00;;;;;;;14.37;100.00;97499.44;6098850;23;20021;-59
2022/07/31 09:01:43;;;;;;;0.00;0.00;;;;;;;14.38;100.00;97509.06;6099182;23;20561;-61
2022/07/31 09:04:12;;;;;;;0.00;0.00;;;;;;;14.44;100.00;97508.50;6099087;23;20022;-59
2022/07/31 09:06:41;;;;;;;0.00;0.00;;;;;;;14.48;100.00;97502.00;6098072;23;20025;-60
2022/07/31 09:09:08;;;;;;;0.00;0.00;;;;;;;14.43;100.00;97506.00;6124009;23;20017;-59
2022/07/31 09:11:46;;;;;;;0.00;0.00;;;;;;;14.41;100.00;97508.78;6099053;23;20017;-60
2022/07/31 09:14:34;;;;;;;0.00;0.00;;;;;;;14.43;100.00;97503.38;6124771;23;20097;-60
2022/07/31 09:17:08;;;;;;;0.00;0.00;;;;;;;14.41;100.00;97514.09;6099342;23;20077;-60
2022/07/31 09:19:37;;;;;;;0.00;0.00;;;;;;;14.43;100.00;97506.81;6099088;23;20021;-59
2022/07/31 09:22:23;;;;;;;0.00;0.00;;;;;;;14.49;100.00;97506.31;6125441;23;20041;-59
2022/07/31 09:24:52;;;;;;;0.00;0.00;;;;;;;14.49;100.00;97516.03;6099104;23;20018;-59
2022/07/31 09:27:20;;;;;;;0.00;0.00;;;;;;;14.59;100.00;97508.97;6098907;23;20022;-59
2022/07/31 09:29:49;;;;;;;0.00;0.00;;;;;;;14.73;100.00;97515.69;6098989;23;20024;-59
2022/07/31 09:32:28;;;;;;;0.00;0.00;;;;;;;14.69;100.00;97523.06;6099418;23;20495;-59
2022/07/31 09:35:21;;;;;;;0.00;0.00;;;;;;;14.74;100.00;97514.69;6098484;23;20121;-60
2022/07/31 09:37:50;;;;;;;0.00;0.00;;;;;;;14.64;100.00;97512.03;6124497;23;20077;-60
2022/07/31 09:40:56;;;;;;;0.00;0.00;;;;;;;14.65;100.00;97512.88;6007104;23;20035;-59
2022/07/31 09:43:55;;;;;;;0.00;0.00;;;;;;;14.69;100.00;97522.22;5983591;23;20023;-60
2022/07/31 09:46:23;;;;;;;0.00;0.00;;;;;;;14.59;100.00;97523.03;6007146;23;20027;-60
2022/07/31 09:48:51;;;;;;;0.00;0.00;;;;;;;14.77;100.00;97520.56;5983728;23;20098;-60
2022/07/31 09:51:20;;;;;;;0.00;0.00;;;;;;;14.86;100.00;97518.94;6007162;23;20034;-60
2022/07/31 09:53:52;;;;;;;0.00;0.00;;;;;;;14.85;100.00;97526.03;6006826;23;20398;-59
2022/07/31 09:56:45;;;;;;;0.00;0.00;;;;;;;14.69;100.00;97519.59;6003250;23;20102;-60
2022/07/31 09:59:13;;;;;;;0.00;0.00;;;;;;;14.68;100.00;97520.56;5983582;23;20450;-59
2022/07/31 10:01:41;;;;;;;0.00;0.00;;;;;;;14.61;100.00;97524.72;6006985;23;20054;-58
2022/07/31 10:04:10;;;;;;;0.00;0.00;;;;;;;14.55;100.00;97532.22;6006989;23;20095;-59
2022/07/31 10:06:40;;;;;;;0.00;0.00;;;;;;;14.53;100.00;97527.22;6006652;23;20024;-59
2022/07/31 10:09:10;;;;;;;0.00;0.00;;;;;;;14.50;100.00;97523.84;5983422;23;20099;-60
2022/07/31 10:12:06;;;;;;;0.00;0.00;;;;;;;14.50;100.00;97526.50;5994295;23;20357;-59
2022/07/31 10:14:40;;;;;;;0.00;0.00;;;;;;;14.57;100.00;97530.28;6013532;23;20027;-59
2022/07/31 10:17:09;;;;;;;0.00;0.00;;;;;;;14.51;100.00;97524.69;6013464;23;20505;-59
2022/07/31 10:19:42;;;;;;;0.00;0.00;;;;;;;14.61;100.00;97530.00;6037321;23;20123;-59
2022/07/31 10:22:43;;;;;;;0.00;0.00;;;;;;;14.66;100.00;97531.28;6013623;23;20030;-59
2022/07/31 10:25:19;;;;;;;0.00;0.00;;;;;;;14.69;100.00;97532.81;6013486;23;20509;-60
2022/07/31 10:27:48;;;;;;;0.00;0.00;;;;;;;14.75;100.00;97537.59;6013667;23;20525;-59
2022/07/31 10:30:17;;;;;;;0.00;0.00;;;;;;;14.80;100.00;97536.19;6013467;23;20331;-58
2022/07/31 10:32:52;;;;;;;0.00;0.00;;;;;;;14.90;100.00;97536.22;6013650;23;20083;-59
2022/07/31 10:35:30;;;;;;;0.00;0.00;;;;;;;14.92;100.00;97544.84;6036937;23;20058;-60
2022/07/31 10:38:15;;;;;;;0.00;0.00;;;;;;;14.86;100.00;97543.59;6013180;23;20028;-59
2022/07/31 10:41:09;;;;;;;0.00;0.00;;;;;;;14.85;100.00;97551.66;6037000;23;20027;-59
2022/07/31 10:43:45;;;;;;;0.00;0.00;;;;;;;14.75;100.00;97550.81;6037053;23;20083;-60
2022/07/31 10:46:28;;;;;;;0.00;0.00;;;;;;;14.71;100.00;97552.03;6013468;23;20047;-59
2022/07/31 10:49:18;;;;;;;0.00;0.00;;;;;;;14.62;100.00;97551.88;6063418;23;20022;-60
2022/07/31 10:52:05;;;;;;;0.00;0.00;;;;;;;14.49;100.00;97548.66;6097098;23;20026;-59
2022/07/31 10:54:43;;;;;;;0.00;0.00;;;;;;;14.41;100.00;97561.72;6095577;23;20041;-59
2022/07/31 10:57:32;;;;;;;0.00;0.00;;;;;;;14.36;100.00;97561.25;6096776;23;20340;-59
2022/07/31 11:00:21;;;;;;;0.00;0.00;;;;;;;14.30;100.00;97563.59;6096399;23;20318;-60
2022/07/31 11:03:15;;;;;;;0.00;0.00;;;;;;;14.35;100.00;97562.25;6097285;23;20026;-59
2022/07/31 11:06:01;;;;;;;0.00;0.00;;;;;;;14.40;100.00;97565.31;6096595;23;20026;-58
2022/07/31 11:08:58;;;;;;;0.00;0.00;;;;;;;14.46;100.00;97570.09;5979837;24;20257;-58
2022/07/31 11:11:50;;;;;;;0.00;0.00;;;;;;;14.54;100.00;97562.31;5979533;24;20076;-59
2022/07/31 11:14:38;;;;;;;0.00;0.00;;;;;;;14.71;100.00;97570.56;5980188;24;20028;-59
2022/07/31 11:17:32;;;;;;;0.00;0.00;;;;;;;14.70;100.00;97569.75;5979798;24;20607;-58
2022/07/31 19:06:52;;;;;;;0.00;0.00;;;;;;;14.31;100.00;97793.72;6123238;23;20088;-59
2022/07/31 19:09:21;;;;;;;0.00;0.00;;;;;;;14.31;100.00;97787.56;6125525;23;20041;-58
2022/07/31 19:11:49;;;;;;;0.00;0.00;;;;;;;14.35;100.00;97792.50;6125398;23;20021;-60
2022/07/31 19:14:16;;;;;;;0.00;0.00;;;;;;;14.38;100.00;97792.25;6125976;23;20018;-59
2022/07/31 19:16:44;;;;;;;0.00;0.00;;;;;;;14.41;100.00;97799.94;6126179;23;20073;-60
2022/07/31 19:19:11;;;;;;;0.00;0.00;;;;;;;14.44;100.00;97799.66;6125899;23;20014;-60
2022/07/31 19:21:39;;;;;;;0.00;0.00;;;;;;;14.47;100.00;97794.09;6125887;23;20026;-60
2022/07/31 19:24:08;;;;;;;0.00;0.00;;;;;;;14.47;100.00;97794.09;6125983;23;20096;-60
2022/07/31 19:26:36;;;;;;;0.00;0.00;;;;;;;14.50;100.00;97798.28;6125676;23;20380;-60
2022/07/31 19:29:03;;;;;;;0.00;0.00;;;;;;;14.50;100.00;97796.50;6124214;23;20456;-61
2022/07/31 19:31:31;;;;;;;0.00;0.00;;;;;;;14.49;100.00;97796.63;6124426;23;20418;-59
2022/07/31 19:33:59;;;;;;;0.00;0.00;;;;;;;14.50;100.00;97800.94;6124370;23;20094;-58
2022/07/31 19:36:26;;;;;;;0.00;0.00;;;;;;;14.46;100.00;97797.72;6125275;23;20025;-60
2022/07/31 19:38:54;;;;;;;0.00;0.00;;;;;;;14.46;100.00;97805.66;6125440;23;20522;-61
2022/07/31 19:41:23;;;;;;;0.00;0.00;;;;;;;14.47;100.00;97807.34;6125765;23;20022;-60
2022/07/31 19:43:51;;;;;;;0.00;0.00;;;;;;;14.51;100.00;97800.81;6125642;23;20029;-59
2022/07/31 19:46:18;;;;;;;0.00;0.00;;;;;;;14.49;100.00;97813.38;6125012;23;20021;-60
2022/07/31 19:48:46;;;;;;;0.00;0.00;;;;;;;14.53;100.00;97805.16;6125713;23;20024;-60
2022/07/31 19:51:15;;;;;;;0.00;0.00;;;;;;;14.56;100.00;97805.75;6125910;23;20018;-60
2022/07/31 19:53:43;;;;;;;0.00;0.00;;;;;;;14.57;100.00;97810.06;6126188;23;20376;-60
2022/07/31 19:56:11;;;;;;;0.00;0.00;;;;;;;14.58;100.00;97807.28;6125778;23;20025;-60
2022/07/31 19:58:41;;;;;;;0.00;0.00;;;;;;;14.57;100.00;97802.97;6125551;23;20482;-60
2022/07/31 20:01:10;;;;;;;0.00;0.00;;;;;;;14.58;100.00;97812.59;6124499;23;20022;-60
2022/07/31 20:03:37;;;;;;;0.00;0.00;;;;;;;14.55;100.00;97804.88;6125506;23;20018;-60